Overview Statistics Trail Chart Weather Telemetry Raw packets
 

This is the latest recevied weather packets stored in our database for station/object MDJB. If no packets are shown the sender has not sent any weather packets the latest 10 day(s).

<< 50 51 52 53 54 55 56 >>
Time Temp. Humidity Pressure Rain* Wind** Luminosity Snow
1787805215 27.22° C 77% 1015 hPa 0 mm - - -
1787804614 27.22° C 78% 1015 hPa 0 mm - - -
1787804014 27.78° C 78% 1015 hPa 0 mm - - -
1787803413 24.44° C 86% 1016 hPa 0 mm - - -
1787802812 24.44° C 86% 1016 hPa 0 mm - - -
1787802212 25° C 84% 1016 hPa 0 mm - - -
1787801611 25.56° C 80% 1016 hPa 0 mm - - -
1787801011 26.11° C 80% 1016 hPa 0 mm - - -
1787800410 26.67° C 80% 1015 hPa 0 mm - - -
1787799809 26.67° C 80% 1015 hPa 0 mm - - -
1787799209 26.67° C 80% 1016 hPa 0 mm - - -
1787798608 26.67° C 78% 1016 hPa 0 mm - - -
1787798008 27.78° C 73% 1016 hPa 0 mm - - -
1787797407 27.78° C 73% 1015 hPa 0 mm - - -
1787796807 27.78° C 73% 1015 hPa 0 mm - - -
1787796206 27.22° C 76% 1015 hPa 0 mm - - -
1787795605 27.22° C 76% 1016 hPa 0 mm - - -
1787795005 27.22° C 75% 1016 hPa 0 mm - - -
1787794404 27.22° C 75% 1016 hPa 0 mm - - -
1787793804 27.22° C 74% 1015 hPa 0 mm - - -
1787793203 27.78° C 71% 1015 hPa 0 mm - - -
1787792602 27.78° C 74% 1015 hPa 0 mm - - -
1787792002 27.78° C 74% 1016 hPa 0 mm - - -
1787791401 27.78° C 74% 1015 hPa 0 mm - - -
1787790801 27.78° C 73% 1015 hPa 0 mm - - -

* Rain latest hour (hover to see other rain measurements)
** Current wind speed in m/s (hover to see current wind gust speed)